sensor_id;sensor_type;location;lat;lon;timestamp;P1;durP1;ratioP1;P2;durP2;ratioP2
60464;SDS011;46314;52.392;9.758;2023-04-05T00:00:35;6.55;;;4.03;;
60464;SDS011;46314;52.392;9.758;2023-04-05T00:03:01;5.03;;;3.70;;
60464;SDS011;46314;52.392;9.758;2023-04-05T00:05:28;7.05;;;5.13;;
60464;SDS011;46314;52.392;9.758;2023-04-05T00:07:55;6.45;;;3.95;;
60464;SDS011;46314;52.392;9.758;2023-04-05T00:10:21;5.15;;;4.10;;
60464;SDS011;46314;52.392;9.758;2023-04-05T00:12:48;5.68;;;4.45;;
60464;SDS011;46314;52.392;9.758;2023-04-05T00:15:16;8.25;;;4.32;;
60464;SDS011;46314;52.392;9.758;2023-04-05T00:17:43;5.97;;;4.43;;
60464;SDS011;46314;52.392;9.758;2023-04-05T00:20:10;7.97;;;4.45;;
60464;SDS011;46314;52.392;9.758;2023-04-05T00:22:37;8.45;;;4.85;;
60464;SDS011;46314;52.392;9.758;2023-04-05T00:25:05;5.15;;;3.78;;
60464;SDS011;46314;52.392;9.758;2023-04-05T00:27:32;6.75;;;4.68;;
60464;SDS011;46314;52.392;9.758;2023-04-05T00:29:58;8.93;;;4.63;;
60464;SDS011;46314;52.392;9.758;2023-04-05T00:32:26;6.03;;;4.32;;
60464;SDS011;46314;52.392;9.758;2023-04-05T00:34:53;6.90;;;4.57;;
60464;SDS011;46314;52.392;9.758;2023-04-05T00:37:20;6.30;;;4.20;;
60464;SDS011;46314;52.392;9.758;2023-04-05T00:39:46;7.32;;;4.38;;
60464;SDS011;46314;52.392;9.758;2023-04-05T00:42:13;6.70;;;4.30;;
60464;SDS011;46314;52.392;9.758;2023-04-05T00:44:39;8.32;;;4.57;;
60464;SDS011;46314;52.392;9.758;2023-04-05T00:47:06;8.30;;;4.57;;
60464;SDS011;46314;52.392;9.758;2023-04-05T00:49:34;7.00;;;4.70;;
60464;SDS011;46314;52.392;9.758;2023-04-05T00:52:01;6.32;;;4.18;;
60464;SDS011;46314;52.392;9.758;2023-04-05T00:54:28;7.78;;;4.72;;
60464;SDS011;46314;52.392;9.758;2023-04-05T00:56:55;6.68;;;3.90;;
60464;SDS011;46314;52.392;9.758;2023-04-05T00:59:22;11.43;;;4.80;;
60464;SDS011;46314;52.392;9.758;2023-04-05T01:01:49;7.00;;;4.55;;
60464;SDS011;46314;52.392;9.758;2023-04-05T01:04:29;6.45;;;4.32;;
60464;SDS011;46314;52.392;9.758;2023-04-05T01:07:03;10.43;;;5.57;;
60464;SDS011;46314;52.392;9.758;2023-04-05T01:09:36;8.98;;;5.15;;
60464;SDS011;46314;52.392;9.758;2023-04-05T01:12:11;8.93;;;5.40;;
60464;SDS011;46314;52.392;9.758;2023-04-05T01:14:43;6.57;;;5.22;;
60464;SDS011;46314;52.392;9.758;2023-04-05T01:17:10;7.95;;;4.68;;
60464;SDS011;46314;52.392;9.758;2023-04-05T01:19:38;9.88;;;4.90;;
60464;SDS011;46314;52.392;9.758;2023-04-05T01:22:09;8.60;;;4.78;;
60464;SDS011;46314;52.392;9.758;2023-04-05T01:24:53;8.38;;;5.10;;
60464;SDS011;46314;52.392;9.758;2023-04-05T01:27:37;10.18;;;5.40;;
60464;SDS011;46314;52.392;9.758;2023-04-05T01:30:22;9.07;;;5.15;;
60464;SDS011;46314;52.392;9.758;2023-04-05T01:35:28;8.40;;;4.78;;
60464;SDS011;46314;52.392;9.758;2023-04-05T01:38:02;6.82;;;4.97;;
60464;SDS011;46314;52.392;9.758;2023-04-05T01:40:30;7.10;;;4.45;;
60464;SDS011;46314;52.392;9.758;2023-04-05T01:42:59;7.45;;;4.75;;
60464;SDS011;46314;52.392;9.758;2023-04-05T01:45:27;7.13;;;4.70;;
60464;SDS011;46314;52.392;9.758;2023-04-05T01:47:54;10.68;;;5.43;;
60464;SDS011;46314;52.392;9.758;2023-04-05T01:50:20;9.40;;;5.18;;
60464;SDS011;46314;52.392;9.758;2023-04-05T01:52:46;8.23;;;4.88;;
60464;SDS011;46314;52.392;9.758;2023-04-05T01:55:13;8.48;;;5.15;;
60464;SDS011;46314;52.392;9.758;2023-04-05T01:57:39;7.50;;;4.30;;
60464;SDS011;46314;52.392;9.758;2023-04-05T02:00:06;7.57;;;4.65;;
60464;SDS011;46314;52.392;9.758;2023-04-05T02:02:35;7.18;;;4.70;;
60464;SDS011;46314;52.392;9.758;2023-04-05T02:05:01;9.98;;;4.93;;
60464;SDS011;46314;52.392;9.758;2023-04-05T02:07:28;8.02;;;4.85;;
60464;SDS011;46314;52.392;9.758;2023-04-05T02:09:54;7.38;;;4.43;;
60464;SDS011;46314;52.392;9.758;2023-04-05T02:12:20;6.82;;;4.25;;
60464;SDS011;46314;52.392;9.758;2023-04-05T02:14:47;10.05;;;4.88;;
60464;SDS011;46314;52.392;9.758;2023-04-05T02:17:13;7.90;;;4.65;;
60464;SDS011;46314;52.392;9.758;2023-04-05T02:19:41;8.65;;;4.82;;
60464;SDS011;46314;52.392;9.758;2023-04-05T02:22:07;10.93;;;5.15;;
60464;SDS011;46314;52.392;9.758;2023-04-05T02:24:33;11.30;;;6.38;;
60464;SDS011;46314;52.392;9.758;2023-04-05T02:27:00;7.03;;;4.50;;
60464;SDS011;46314;52.392;9.758;2023-04-05T02:29:26;9.25;;;6.15;;
60464;SDS011;46314;52.392;9.758;2023-04-05T02:31:53;12.25;;;6.40;;
60464;SDS011;46314;52.392;9.758;2023-04-05T02:34:19;8.70;;;5.50;;
60464;SDS011;46314;52.392;9.758;2023-04-05T02:36:47;9.93;;;5.97;;
60464;SDS011;46314;52.392;9.758;2023-04-05T02:39:14;11.50;;;6.80;;
60464;SDS011;46314;52.392;9.758;2023-04-05T02:41:40;9.70;;;5.75;;
60464;SDS011;46314;52.392;9.758;2023-04-05T02:44:07;7.13;;;5.20;;
60464;SDS011;46314;52.392;9.758;2023-04-05T02:46:33;10.20;;;5.88;;
60464;SDS011;46314;52.392;9.758;2023-04-05T02:48:59;8.70;;;5.70;;
60464;SDS011;46314;52.392;9.758;2023-04-05T02:51:26;10.18;;;5.93;;
60464;SDS011;46314;52.392;9.758;2023-04-05T02:53:54;9.60;;;5.60;;
60464;SDS011;46314;52.392;9.758;2023-04-05T02:56:20;8.07;;;5.13;;
60464;SDS011;46314;52.392;9.758;2023-04-05T02:58:46;10.25;;;5.28;;
60464;SDS011;46314;52.392;9.758;2023-04-05T03:01:13;7.90;;;5.45;;
60464;SDS011;46314;52.392;9.758;2023-04-05T03:03:39;10.02;;;6.07;;
60464;SDS011;46314;52.392;9.758;2023-04-05T03:06:06;11.45;;;6.45;;
60464;SDS011;46314;52.392;9.758;2023-04-05T03:08:32;9.55;;;6.00;;
60464;SDS011;46314;52.392;9.758;2023-04-05T03:11:00;9.70;;;6.07;;
60464;SDS011;46314;52.392;9.758;2023-04-05T03:13:26;11.70;;;7.15;;
60464;SDS011;46314;52.392;9.758;2023-04-05T03:15:53;11.85;;;5.85;;
60464;SDS011;46314;52.392;9.758;2023-04-05T03:18:19;14.40;;;6.97;;
60464;SDS011;46314;52.392;9.758;2023-04-05T03:20:46;8.93;;;5.88;;
60464;SDS011;46314;52.392;9.758;2023-04-05T03:23:12;18.05;;;6.80;;
60464;SDS011;46314;52.392;9.758;2023-04-05T03:25:39;14.00;;;7.07;;
60464;SDS011;46314;52.392;9.758;2023-04-05T03:28:07;11.02;;;6.25;;
60464;SDS011;46314;52.392;9.758;2023-04-05T03:30:33;8.65;;;5.75;;
60464;SDS011;46314;52.392;9.758;2023-04-05T03:33:00;10.18;;;6.05;;
60464;SDS011;46314;52.392;9.758;2023-04-05T03:35:26;7.70;;;5.47;;
60464;SDS011;46314;52.392;9.758;2023-04-05T03:37:53;9.93;;;5.97;;
60464;SDS011;46314;52.392;9.758;2023-04-05T03:40:20;11.15;;;6.32;;
60464;SDS011;46314;52.392;9.758;2023-04-05T03:42:47;11.77;;;6.85;;
60464;SDS011;46314;52.392;9.758;2023-04-05T03:45:15;10.02;;;5.18;;
60464;SDS011;46314;52.392;9.758;2023-04-05T03:47:48;10.18;;;5.70;;
60464;SDS011;46314;52.392;9.758;2023-04-05T03:50:15;12.30;;;7.18;;
60464;SDS011;46314;52.392;9.758;2023-04-05T03:52:41;11.88;;;6.75;;
60464;SDS011;46314;52.392;9.758;2023-04-05T03:55:07;10.00;;;5.93;;
60464;SDS011;46314;52.392;9.758;2023-04-05T03:57:35;11.77;;;6.07;;
60464;SDS011;46314;52.392;9.758;2023-04-05T04:00:02;7.20;;;5.40;;
60464;SDS011;46314;52.392;9.758;2023-04-05T04:02:31;9.38;;;6.20;;
60464;SDS011;46314;52.392;9.758;2023-04-05T04:04:57;8.77;;;6.40;;
60464;SDS011;46314;52.392;9.758;2023-04-05T04:07:24;9.73;;;6.30;;
60464;SDS011;46314;52.392;9.758;2023-04-05T04:09:50;9.43;;;5.07;;
60464;SDS011;46314;52.392;9.758;2023-04-05T04:12:16;10.55;;;6.80;;
60464;SDS011;46314;52.392;9.758;2023-04-05T04:14:43;12.00;;;6.38;;
60464;SDS011;46314;52.392;9.758;2023-04-05T04:17:09;12.85;;;6.07;;
60464;SDS011;46314;52.392;9.758;2023-04-05T04:19:37;12.18;;;6.15;;
60464;SDS011;46314;52.392;9.758;2023-04-05T04:22:03;11.00;;;6.40;;
60464;SDS011;46314;52.392;9.758;2023-04-05T04:24:29;10.68;;;6.20;;
60464;SDS011;46314;52.392;9.758;2023-04-05T04:26:56;13.52;;;7.28;;
60464;SDS011;46314;52.392;9.758;2023-04-05T04:29:22;8.55;;;5.82;;
60464;SDS011;46314;52.392;9.758;2023-04-05T04:31:49;9.02;;;5.70;;
60464;SDS011;46314;52.392;9.758;2023-04-05T04:34:15;9.35;;;5.38;;
60464;SDS011;46314;52.392;9.758;2023-04-05T04:36:43;8.77;;;5.72;;
60464;SDS011;46314;52.392;9.758;2023-04-05T04:39:09;8.73;;;6.05;;
60464;SDS011;46314;52.392;9.758;2023-04-05T04:41:36;12.10;;;5.97;;
60464;SDS011;46314;52.392;9.758;2023-04-05T04:44:02;11.27;;;6.68;;
60464;SDS011;46314;52.392;9.758;2023-04-05T04:46:29;11.35;;;6.40;;
60464;SDS011;46314;52.392;9.758;2023-04-05T04:48:55;8.55;;;5.85;;
60464;SDS011;46314;52.392;9.758;2023-04-05T04:51:22;11.43;;;6.53;;
60464;SDS011;46314;52.392;9.758;2023-04-05T04:53:50;8.70;;;5.78;;
60464;SDS011;46314;52.392;9.758;2023-04-05T04:56:16;10.25;;;5.63;;
60464;SDS011;46314;52.392;9.758;2023-04-05T04:58:42;8.15;;;5.10;;
60464;SDS011;46314;52.392;9.758;2023-04-05T05:01:09;9.40;;;5.35;;
60464;SDS011;46314;52.392;9.758;2023-04-05T05:03:35;8.48;;;5.90;;
60464;SDS011;46314;52.392;9.758;2023-04-05T05:06:02;8.98;;;5.88;;
60464;SDS011;46314;52.392;9.758;2023-04-05T05:08:29;8.55;;;5.93;;
60464;SDS011;46314;52.392;9.758;2023-04-05T05:10:56;10.65;;;6.93;;
60464;SDS011;46314;52.392;9.758;2023-04-05T05:13:23;11.95;;;6.85;;
60464;SDS011;46314;52.392;9.758;2023-04-05T05:15:49;10.05;;;6.40;;
60464;SDS011;46314;52.392;9.758;2023-04-05T05:18:16;12.80;;;6.30;;
60464;SDS011;46314;52.392;9.758;2023-04-05T05:20:42;8.32;;;5.38;;
60464;SDS011;46314;52.392;9.758;2023-04-05T05:23:09;11.40;;;6.72;;
60464;SDS011;46314;52.392;9.758;2023-04-05T05:25:35;9.57;;;6.18;;
60464;SDS011;46314;52.392;9.758;2023-04-05T05:28:05;9.23;;;5.57;;
60464;SDS011;46314;52.392;9.758;2023-04-05T05:30:31;17.23;;;7.32;;
60464;SDS011;46314;52.392;9.758;2023-04-05T05:32:58;8.90;;;6.40;;
60464;SDS011;46314;52.392;9.758;2023-04-05T05:35:24;11.95;;;6.32;;
60464;SDS011;46314;52.392;9.758;2023-04-05T05:37:50;10.43;;;6.60;;
60464;SDS011;46314;52.392;9.758;2023-04-05T05:40:17;8.38;;;5.60;;
60464;SDS011;46314;52.392;9.758;2023-04-05T05:42:43;11.93;;;6.85;;
60464;SDS011;46314;52.392;9.758;2023-04-05T05:45:11;7.15;;;5.70;;
60464;SDS011;46314;52.392;9.758;2023-04-05T05:47:38;10.05;;;6.60;;
60464;SDS011;46314;52.392;9.758;2023-04-05T05:50:05;14.38;;;6.97;;
60464;SDS011;46314;52.392;9.758;2023-04-05T05:52:32;11.57;;;6.13;;
60464;SDS011;46314;52.392;9.758;2023-04-05T05:54:59;15.00;;;8.45;;
60464;SDS011;46314;52.392;9.758;2023-04-05T05:57:25;20.80;;;9.18;;
60464;SDS011;46314;52.392;9.758;2023-04-05T05:59:51;13.73;;;7.93;;
60464;SDS011;46314;52.392;9.758;2023-04-05T06:02:19;10.77;;;8.25;;
60464;SDS011;46314;52.392;9.758;2023-04-05T06:04:45;11.43;;;8.05;;
60464;SDS011;46314;52.392;9.758;2023-04-05T06:07:12;12.75;;;7.55;;
60464;SDS011;46314;52.392;9.758;2023-04-05T06:09:39;9.65;;;7.20;;
60464;SDS011;46314;52.392;9.758;2023-04-05T06:12:06;14.75;;;8.68;;
60464;SDS011;46314;52.392;9.758;2023-04-05T06:14:32;13.40;;;7.68;;
60464;SDS011;46314;52.392;9.758;2023-04-05T06:16:59;11.77;;;7.55;;
60464;SDS011;46314;52.392;9.758;2023-04-05T06:19:26;10.48;;;7.43;;
60464;SDS011;46314;52.392;9.758;2023-04-05T06:21:53;9.38;;;7.03;;
60464;SDS011;46314;52.392;9.758;2023-04-05T06:24:19;9.75;;;7.30;;
60464;SDS011;46314;52.392;9.758;2023-04-05T06:26:46;10.13;;;6.82;;
60464;SDS011;46314;52.392;9.758;2023-04-05T06:29:12;9.93;;;6.20;;
60464;SDS011;46314;52.392;9.758;2023-04-05T06:31:39;8.75;;;6.88;;
60464;SDS011;46314;52.392;9.758;2023-04-05T06:34:05;12.10;;;6.85;;
60464;SDS011;46314;52.392;9.758;2023-04-05T06:36:33;12.48;;;7.00;;
60464;SDS011;46314;52.392;9.758;2023-04-05T06:38:59;9.40;;;7.13;;
60464;SDS011;46314;52.392;9.758;2023-04-05T06:41:26;12.35;;;7.00;;
60464;SDS011;46314;52.392;9.758;2023-04-05T06:43:53;12.98;;;6.50;;
60464;SDS011;46314;52.392;9.758;2023-04-05T06:46:19;16.77;;;7.63;;
60464;SDS011;46314;52.392;9.758;2023-04-05T06:48:46;9.23;;;6.65;;
60464;SDS011;46314;52.392;9.758;2023-04-05T06:51:12;14.38;;;7.38;;
60464;SDS011;46314;52.392;9.758;2023-04-05T06:53:40;12.27;;;6.68;;
60464;SDS011;46314;52.392;9.758;2023-04-05T06:56:07;14.40;;;7.07;;
60464;SDS011;46314;52.392;9.758;2023-04-05T06:58:33;13.10;;;7.07;;
60464;SDS011;46314;52.392;9.758;2023-04-05T07:01:00;13.27;;;7.45;;
60464;SDS011;46314;52.392;9.758;2023-04-05T07:03:26;11.80;;;7.00;;
60464;SDS011;46314;52.392;9.758;2023-04-05T07:05:53;10.45;;;7.68;;
60464;SDS011;46314;52.392;9.758;2023-04-05T07:08:22;12.70;;;7.50;;
60464;SDS011;46314;52.392;9.758;2023-04-05T07:10:50;13.68;;;7.68;;
60464;SDS011;46314;52.392;9.758;2023-04-05T07:13:17;13.27;;;7.20;;
60464;SDS011;46314;52.392;9.758;2023-04-05T07:15:44;12.23;;;7.57;;
60464;SDS011;46314;52.392;9.758;2023-04-05T07:18:11;11.63;;;7.32;;
60464;SDS011;46314;52.392;9.758;2023-04-05T07:20:38;11.43;;;6.57;;
60464;SDS011;46314;52.392;9.758;2023-04-05T07:23:05;12.32;;;6.00;;
60464;SDS011;46314;52.392;9.758;2023-04-05T07:25:31;9.02;;;6.70;;
60464;SDS011;46314;52.392;9.758;2023-04-05T07:28:00;11.93;;;7.15;;
60464;SDS011;46314;52.392;9.758;2023-04-05T07:30:26;10.10;;;6.80;;
60464;SDS011;46314;52.392;9.758;2023-04-05T07:32:52;16.10;;;6.95;;
60464;SDS011;46314;52.392;9.758;2023-04-05T07:35:19;10.00;;;6.63;;
60464;SDS011;46314;52.392;9.758;2023-04-05T07:37:46;9.77;;;6.30;;
60464;SDS011;46314;52.392;9.758;2023-04-05T07:40:12;8.50;;;5.88;;
60464;SDS011;46314;52.392;9.758;2023-04-05T07:42:38;8.98;;;6.35;;
60464;SDS011;46314;52.392;9.758;2023-04-05T07:45:07;9.50;;;5.97;;
60464;SDS011;46314;52.392;9.758;2023-04-05T07:47:34;9.60;;;6.43;;
60464;SDS011;46314;52.392;9.758;2023-04-05T07:50:00;8.25;;;6.38;;
60464;SDS011;46314;52.392;9.758;2023-04-05T07:52:27;9.10;;;6.03;;
60464;SDS011;46314;52.392;9.758;2023-04-05T07:54:53;9.90;;;5.85;;
60464;SDS011;46314;52.392;9.758;2023-04-05T07:57:20;8.75;;;5.45;;
60464;SDS011;46314;52.392;9.758;2023-04-05T07:59:47;9.63;;;5.55;;
60464;SDS011;46314;52.392;9.758;2023-04-05T08:02:15;5.50;;;4.18;;
60464;SDS011;46314;52.392;9.758;2023-04-05T08:04:41;6.40;;;4.30;;
60464;SDS011;46314;52.392;9.758;2023-04-05T08:07:08;8.73;;;4.32;;
60464;SDS011;46314;52.392;9.758;2023-04-05T08:09:34;5.28;;;3.63;;
60464;SDS011;46314;52.392;9.758;2023-04-05T08:12:01;7.97;;;4.30;;
60464;SDS011;46314;52.392;9.758;2023-04-05T08:14:28;6.05;;;3.85;;
60464;SDS011;46314;52.392;9.758;2023-04-05T08:16:54;9.48;;;4.60;;
60464;SDS011;46314;52.392;9.758;2023-04-05T08:19:22;5.45;;;4.32;;
60464;SDS011;46314;52.392;9.758;2023-04-05T08:21:49;6.20;;;4.10;;
60464;SDS011;46314;52.392;9.758;2023-04-05T08:24:15;8.10;;;4.85;;
60464;SDS011;46314;52.392;9.758;2023-04-05T08:26:41;6.47;;;4.53;;
60464;SDS011;46314;52.392;9.758;2023-04-05T08:29:08;7.97;;;4.43;;
60464;SDS011;46314;52.392;9.758;2023-04-05T08:31:34;8.98;;;4.85;;
60464;SDS011;46314;52.392;9.758;2023-04-05T08:34:01;9.35;;;4.93;;
60464;SDS011;46314;52.392;9.758;2023-04-05T08:36:28;7.25;;;4.30;;
60464;SDS011;46314;52.392;9.758;2023-04-05T08:38:55;7.05;;;4.60;;
60464;SDS011;46314;52.392;9.758;2023-04-05T08:41:22;5.47;;;3.53;;
60464;SDS011;46314;52.392;9.758;2023-04-05T08:43:53;6.45;;;4.13;;
60464;SDS011;46314;52.392;9.758;2023-04-05T08:46:21;4.95;;;3.05;;
60464;SDS011;46314;52.392;9.758;2023-04-05T08:48:49;5.95;;;3.85;;
60464;SDS011;46314;52.392;9.758;2023-04-05T08:51:19;4.22;;;3.60;;
60464;SDS011;46314;52.392;9.758;2023-04-05T08:53:48;5.03;;;3.88;;
60464;SDS011;46314;52.392;9.758;2023-04-05T08:56:14;10.90;;;3.50;;
60464;SDS011;46314;52.392;9.758;2023-04-05T08:58:46;5.10;;;3.40;;
60464;SDS011;46314;52.392;9.758;2023-04-05T09:01:18;4.30;;;3.05;;
60464;SDS011;46314;52.392;9.758;2023-04-05T09:03:45;6.07;;;2.88;;
60464;SDS011;46314;52.392;9.758;2023-04-05T09:06:13;4.63;;;2.80;;
60464;SDS011;46314;52.392;9.758;2023-04-05T09:08:41;4.80;;;2.95;;
60464;SDS011;46314;52.392;9.758;2023-04-05T09:11:09;3.75;;;3.35;;
60464;SDS011;46314;52.392;9.758;2023-04-05T09:13:36;4.95;;;2.53;;
60464;SDS011;46314;52.392;9.758;2023-04-05T09:16:03;5.10;;;3.20;;
60464;SDS011;46314;52.392;9.758;2023-04-05T09:18:30;5.45;;;3.08;;
60464;SDS011;46314;52.392;9.758;2023-04-05T09:21:00;4.20;;;2.80;;
60464;SDS011;46314;52.392;9.758;2023-04-05T09:23:27;4.75;;;2.97;;
60464;SDS011;46314;52.392;9.758;2023-04-05T09:25:54;3.92;;;3.25;;
60464;SDS011;46314;52.392;9.758;2023-04-05T09:28:22;5.10;;;3.55;;
60464;SDS011;46314;52.392;9.758;2023-04-05T09:30:48;4.38;;;3.03;;
60464;SDS011;46314;52.392;9.758;2023-04-05T09:33:15;3.25;;;2.72;;
60464;SDS011;46314;52.392;9.758;2023-04-05T09:35:44;3.80;;;3.25;;
60464;SDS011;46314;52.392;9.758;2023-04-05T09:38:15;4.63;;;3.47;;
60464;SDS011;46314;52.392;9.758;2023-04-05T09:40:42;3.50;;;3.03;;
60464;SDS011;46314;52.392;9.758;2023-04-05T09:43:09;4.10;;;3.10;;
60464;SDS011;46314;52.392;9.758;2023-04-05T09:45:40;5.13;;;3.75;;
60464;SDS011;46314;52.392;9.758;2023-04-05T09:48:08;4.70;;;3.40;;
60464;SDS011;46314;52.392;9.758;2023-04-05T09:50:35;5.50;;;3.40;;
60464;SDS011;46314;52.392;9.758;2023-04-05T09:53:05;5.03;;;3.40;;
60464;SDS011;46314;52.392;9.758;2023-04-05T09:55:33;5.18;;;3.80;;
60464;SDS011;46314;52.392;9.758;2023-04-05T09:58:00;5.13;;;2.80;;
60464;SDS011;46314;52.392;9.758;2023-04-05T10:00:27;4.25;;;3.10;;
60464;SDS011;46314;52.392;9.758;2023-04-05T10:02:56;3.67;;;2.50;;
60464;SDS011;46314;52.392;9.758;2023-04-05T10:05:23;5.00;;;3.35;;
60464;SDS011;46314;52.392;9.758;2023-04-05T10:07:50;5.05;;;2.95;;
60464;SDS011;46314;52.392;9.758;2023-04-05T10:10:16;6.97;;;3.75;;
60464;SDS011;46314;52.392;9.758;2023-04-05T10:12:43;5.03;;;3.08;;
60464;SDS011;46314;52.392;9.758;2023-04-05T10:15:12;4.70;;;3.15;;
60464;SDS011;46314;52.392;9.758;2023-04-05T10:17:46;4.82;;;3.30;;
60464;SDS011;46314;52.392;9.758;2023-04-05T10:20:15;4.55;;;3.05;;
60464;SDS011;46314;52.392;9.758;2023-04-05T10:22:51;5.25;;;2.80;;
60464;SDS011;46314;52.392;9.758;2023-04-05T10:25:26;3.60;;;2.67;;
60464;SDS011;46314;52.392;9.758;2023-04-05T10:28:05;3.60;;;2.80;;
60464;SDS011;46314;52.392;9.758;2023-04-05T10:30:46;4.63;;;3.75;;
60464;SDS011;46314;52.392;9.758;2023-04-05T10:33:18;11.35;;;3.50;;
60464;SDS011;46314;52.392;9.758;2023-04-05T10:35:55;7.05;;;3.88;;
60464;SDS011;46314;52.392;9.758;2023-04-05T10:38:32;6.00;;;3.13;;
60464;SDS011;46314;52.392;9.758;2023-04-05T10:41:08;4.70;;;3.08;;
60464;SDS011;46314;52.392;9.758;2023-04-05T10:43:38;3.25;;;2.80;;
60464;SDS011;46314;52.392;9.758;2023-04-05T10:46:05;4.50;;;3.50;;
60464;SDS011;46314;52.392;9.758;2023-04-05T10:48:36;4.78;;;3.10;;
60464;SDS011;46314;52.392;9.758;2023-04-05T10:51:07;5.50;;;3.22;;
60464;SDS011;46314;52.392;9.758;2023-04-05T10:53:34;4.10;;;3.33;;
60464;SDS011;46314;52.392;9.758;2023-04-05T10:56:02;4.80;;;3.03;;
60464;SDS011;46314;52.392;9.758;2023-04-05T10:58:30;4.13;;;3.00;;
60464;SDS011;46314;52.392;9.758;2023-04-05T11:00:58;4.53;;;3.35;;
60464;SDS011;46314;52.392;9.758;2023-04-05T11:03:44;3.53;;;2.95;;
60464;SDS011;46314;52.392;9.758;2023-04-05T11:06:20;5.28;;;3.60;;
60464;SDS011;46314;52.392;9.758;2023-04-05T11:08:48;4.38;;;3.03;;
60464;SDS011;46314;52.392;9.758;2023-04-05T11:11:17;5.18;;;3.90;;
60464;SDS011;46314;52.392;9.758;2023-04-05T11:13:47;4.22;;;3.63;;
60464;SDS011;46314;52.392;9.758;2023-04-05T11:16:14;5.97;;;3.78;;
60464;SDS011;46314;52.392;9.758;2023-04-05T11:18:43;3.45;;;3.15;;
60464;SDS011;46314;52.392;9.758;2023-04-05T11:21:10;3.40;;;2.92;;
60464;SDS011;46314;52.392;9.758;2023-04-05T11:23:58;4.95;;;3.33;;
60464;SDS011;46314;52.392;9.758;2023-04-05T11:26:31;5.25;;;4.10;;
60464;SDS011;46314;52.392;9.758;2023-04-05T11:29:17;5.25;;;3.95;;
60464;SDS011;46314;52.392;9.758;2023-04-05T11:31:55;4.43;;;3.92;;
60464;SDS011;46314;52.392;9.758;2023-04-05T11:34:23;5.20;;;4.25;;
60464;SDS011;46314;52.392;9.758;2023-04-05T11:36:50;6.75;;;4.97;;
60464;SDS011;46314;52.392;9.758;2023-04-05T11:39:24;7.18;;;4.55;;
60464;SDS011;46314;52.392;9.758;2023-04-05T11:41:56;7.00;;;5.18;;
60464;SDS011;46314;52.392;9.758;2023-04-05T11:44:25;6.45;;;5.03;;
60464;SDS011;46314;52.392;9.758;2023-04-05T11:46:52;7.15;;;5.38;;
60464;SDS011;46314;52.392;9.758;2023-04-05T11:49:20;7.80;;;4.75;;
60464;SDS011;46314;52.392;9.758;2023-04-05T11:51:47;12.48;;;5.28;;
60464;SDS011;46314;52.392;9.758;2023-04-05T11:54:27;4.43;;;3.85;;
60464;SDS011;46314;52.392;9.758;2023-04-05T11:56:54;5.65;;;4.45;;
60464;SDS011;46314;52.392;9.758;2023-04-05T11:59:26;5.95;;;4.97;;
60464;SDS011;46314;52.392;9.758;2023-04-05T12:01:56;5.00;;;4.20;;
60464;SDS011;46314;52.392;9.758;2023-04-05T12:04:23;5.25;;;4.18;;
60464;SDS011;46314;52.392;9.758;2023-04-05T12:09:35;7.82;;;5.53;;
60464;SDS011;46314;52.392;9.758;2023-04-05T12:12:02;6.55;;;5.38;;
60464;SDS011;46314;52.392;9.758;2023-04-05T12:14:28;7.60;;;5.47;;
60464;SDS011;46314;52.392;9.758;2023-04-05T12:16:57;8.43;;;6.00;;
60464;SDS011;46314;52.392;9.758;2023-04-05T12:19:23;6.63;;;5.90;;
60464;SDS011;46314;52.392;9.758;2023-04-05T12:21:55;7.70;;;6.03;;
60464;SDS011;46314;52.392;9.758;2023-04-05T12:24:21;6.45;;;5.65;;
60464;SDS011;46314;52.392;9.758;2023-04-05T12:26:49;6.97;;;5.85;;
60464;SDS011;46314;52.392;9.758;2023-04-05T12:29:15;6.47;;;5.53;;
60464;SDS011;46314;52.392;9.758;2023-04-05T12:31:42;7.55;;;6.00;;
60464;SDS011;46314;52.392;9.758;2023-04-05T12:34:10;7.13;;;6.10;;
60464;SDS011;46314;52.392;9.758;2023-04-05T12:36:38;5.70;;;5.10;;
60464;SDS011;46314;52.392;9.758;2023-04-05T12:39:07;6.05;;;5.45;;
60464;SDS011;46314;52.392;9.758;2023-04-05T12:41:35;6.82;;;4.80;;
60464;SDS011;46314;52.392;9.758;2023-04-05T12:44:05;9.65;;;6.07;;
60464;SDS011;46314;52.392;9.758;2023-04-05T12:46:37;6.80;;;5.55;;
60464;SDS011;46314;52.392;9.758;2023-04-05T12:49:04;7.43;;;5.85;;
60464;SDS011;46314;52.392;9.758;2023-04-05T12:51:31;7.13;;;6.00;;
60464;SDS011;46314;52.392;9.758;2023-04-05T12:53:59;7.15;;;6.15;;
60464;SDS011;46314;52.392;9.758;2023-04-05T12:56:27;7.57;;;5.53;;
60464;SDS011;46314;52.392;9.758;2023-04-05T12:58:53;9.82;;;5.88;;
60464;SDS011;46314;52.392;9.758;2023-04-05T13:01:21;7.50;;;5.68;;
60464;SDS011;46314;52.392;9.758;2023-04-05T13:03:48;7.18;;;6.28;;
60464;SDS011;46314;52.392;9.758;2023-04-05T13:06:15;6.63;;;5.93;;
60464;SDS011;46314;52.392;9.758;2023-04-05T13:08:41;7.57;;;6.05;;
60464;SDS011;46314;52.392;9.758;2023-04-05T13:11:07;11.77;;;9.40;;
60464;SDS011;46314;52.392;9.758;2023-04-05T13:13:34;8.57;;;7.22;;
60464;SDS011;46314;52.392;9.758;2023-04-05T13:16:00;7.82;;;7.05;;
60464;SDS011;46314;52.392;9.758;2023-04-05T13:18:28;8.18;;;7.38;;
60464;SDS011;46314;52.392;9.758;2023-04-05T13:20:54;9.32;;;7.70;;
60464;SDS011;46314;52.392;9.758;2023-04-05T13:23:21;7.28;;;6.57;;
60464;SDS011;46314;52.392;9.758;2023-04-05T13:25:48;8.00;;;7.25;;
60464;SDS011;46314;52.392;9.758;2023-04-05T13:28:14;8.60;;;7.28;;
60464;SDS011;46314;52.392;9.758;2023-04-05T13:30:41;8.23;;;6.97;;
60464;SDS011;46314;52.392;9.758;2023-04-05T13:33:07;7.88;;;6.93;;
60464;SDS011;46314;52.392;9.758;2023-04-05T13:35:35;8.05;;;7.03;;
60464;SDS011;46314;52.392;9.758;2023-04-05T13:38:01;7.90;;;7.10;;
60464;SDS011;46314;52.392;9.758;2023-04-05T13:40:30;8.20;;;6.00;;
60464;SDS011;46314;52.392;9.758;2023-04-05T13:42:56;8.00;;;6.85;;
60464;SDS011;46314;52.392;9.758;2023-04-05T13:45:23;6.80;;;6.05;;
60464;SDS011;46314;52.392;9.758;2023-04-05T13:47:49;8.35;;;7.47;;
60464;SDS011;46314;52.392;9.758;2023-04-05T13:50:16;7.65;;;6.63;;
60464;SDS011;46314;52.392;9.758;2023-04-05T13:52:44;8.10;;;7.15;;
60464;SDS011;46314;52.392;9.758;2023-04-05T13:55:10;9.07;;;7.05;;
60464;SDS011;46314;52.392;9.758;2023-04-05T13:57:36;7.78;;;6.57;;
60464;SDS011;46314;52.392;9.758;2023-04-05T14:00:03;6.65;;;5.95;;
60464;SDS011;46314;52.392;9.758;2023-04-05T14:02:31;7.55;;;6.78;;
60464;SDS011;46314;52.392;9.758;2023-04-05T14:04:58;7.30;;;6.45;;
60464;SDS011;46314;52.392;9.758;2023-04-05T14:07:24;7.10;;;6.45;;
60464;SDS011;46314;52.392;9.758;2023-04-05T14:09:52;9.88;;;6.55;;
60464;SDS011;46314;52.392;9.758;2023-04-05T14:12:19;6.35;;;5.75;;
60464;SDS011;46314;52.392;9.758;2023-04-05T14:14:45;8.43;;;6.65;;
60464;SDS011;46314;52.392;9.758;2023-04-05T14:17:12;6.22;;;5.32;;
60464;SDS011;46314;52.392;9.758;2023-04-05T14:19:38;6.80;;;6.18;;
60464;SDS011;46314;52.392;9.758;2023-04-05T14:22:04;8.30;;;6.47;;
60464;SDS011;46314;52.392;9.758;2023-04-05T14:24:31;6.68;;;5.95;;
60464;SDS011;46314;52.392;9.758;2023-04-05T14:26:59;7.80;;;7.00;;
60464;SDS011;46314;52.392;9.758;2023-04-05T14:29:26;7.30;;;6.57;;
60464;SDS011;46314;52.392;9.758;2023-04-05T14:31:53;7.00;;;6.40;;
60464;SDS011;46314;52.392;9.758;2023-04-05T14:34:20;8.43;;;7.03;;
60464;SDS011;46314;52.392;9.758;2023-04-05T14:36:47;7.45;;;6.22;;
60464;SDS011;46314;52.392;9.758;2023-04-05T14:39:14;6.60;;;5.80;;
60464;SDS011;46314;52.392;9.758;2023-04-05T14:41:41;6.80;;;6.20;;
60464;SDS011;46314;52.392;9.758;2023-04-05T14:44:08;6.97;;;6.28;;
60464;SDS011;46314;52.392;9.758;2023-04-05T14:46:35;6.88;;;6.18;;
60464;SDS011;46314;52.392;9.758;2023-04-05T14:49:01;6.90;;;6.25;;
60464;SDS011;46314;52.392;9.758;2023-04-05T14:51:28;13.35;;;6.38;;